Terminal Aerodrome Forecast
Issued by NWS

Home | Current Version | Previous Version | Text Only | Print | Product List | Glossary On
Versions: 1 2 3 4 5 6 7 8 9 10 11 12 13 14 15 16
000
FTUS46 KMFR 250544
TAFRBG
TAF
KRBG 250544Z 2506/2606 00000KT P6SM SCT200
     FM250900 00000KT 4SM BR OVC002
     FM251100 00000KT 1/4SM FG VV002
     FM251900 VRB02KT P6SM SKC=

USA.gov is the U.S. government's official web portal to all federal, state and local government web resources and services.